createdAt,value
2023-03-01T00:01:42.635Z,93.20
2023-03-01T00:04:28.669Z,93.30
2023-03-01T00:07:14.368Z,93.30
2023-03-01T00:10:00.822Z,93.30
2023-03-01T00:12:46.304Z,93.30
2023-03-01T00:15:32.032Z,93.40
2023-03-01T00:18:17.187Z,93.30
2023-03-01T00:21:02.898Z,93.40
2023-03-01T00:23:49.585Z,93.40
2023-03-01T00:26:37.271Z,93.60
2023-03-01T00:29:23.644Z,93.80
2023-03-01T00:32:09.558Z,93.90
2023-03-01T00:34:57.263Z,93.80
2023-03-01T00:37:43.473Z,94.10
2023-03-01T00:40:29.714Z,94.00
2023-03-01T00:43:16.688Z,94.00
2023-03-01T00:46:02.203Z,94.00
2023-03-01T00:48:48.400Z,94.10
2023-03-01T00:51:34.886Z,94.20
2023-03-01T00:54:20.315Z,94.20
2023-03-01T00:57:06.449Z,94.20
2023-03-01T00:59:53.366Z,94.60
2023-03-01T01:02:39.046Z,94.40
2023-03-01T01:05:25.665Z,94.40
2023-03-01T01:08:12.429Z,94.50
2023-03-01T01:10:57.682Z,94.50
2023-03-01T01:13:44.716Z,94.50
2023-03-01T01:16:32.511Z,94.60
2023-03-01T01:19:18.520Z,94.60
2023-03-01T01:22:04.334Z,94.60
2023-03-01T01:24:51.098Z,94.70
2023-03-01T01:27:36.695Z,94.70
2023-03-01T01:30:22.278Z,94.80
2023-03-01T01:33:09.495Z,94.90
2023-03-01T01:35:55.027Z,95.00
2023-03-01T01:38:40.663Z,95.00
2023-03-01T01:41:26.767Z,95.00
2023-03-01T01:44:13.981Z,95.00
2023-03-01T01:47:00.962Z,95.10
2023-03-01T01:49:49.740Z,95.20
2023-03-01T01:52:36.809Z,95.30
2023-03-01T01:55:23.893Z,95.30
2023-03-01T01:58:11.989Z,95.40
2023-03-01T02:00:57.684Z,95.40
2023-03-01T02:03:44.551Z,95.40
2023-03-01T02:06:33.806Z,95.40
2023-03-01T02:09:21.184Z,95.50
2023-03-01T02:12:06.649Z,95.60
2023-03-01T02:14:53.303Z,95.60
2023-03-01T02:17:39.276Z,95.60
2023-03-01T02:20:27.964Z,95.70
2023-03-01T02:23:14.950Z,95.80
2023-03-01T02:26:08.317Z,95.80
2023-03-01T02:28:56.025Z,95.80
2023-03-01T02:31:44.436Z,95.80
2023-03-01T02:34:31.531Z,95.80
2023-03-01T02:37:21.507Z,95.90
2023-03-01T02:40:12.627Z,96.00
2023-03-01T02:42:59.574Z,95.90
2023-03-01T02:45:51.062Z,95.80
2023-03-01T02:48:44.444Z,95.90
2023-03-01T02:51:39.149Z,96.00
2023-03-01T02:54:26.345Z,96.00
2023-03-01T02:57:12.473Z,96.00
2023-03-01T03:00:00.557Z,96.10
2023-03-01T03:02:47.766Z,96.20
2023-03-01T03:05:36.858Z,96.10
2023-03-01T03:08:25.186Z,96.10
2023-03-01T03:11:11.534Z,96.30
2023-03-01T03:13:57.184Z,96.30
2023-03-01T03:16:43.332Z,96.40
2023-03-01T03:19:30.757Z,96.40
2023-03-01T03:22:16.283Z,96.40
2023-03-01T03:25:01.736Z,96.40
2023-03-01T03:27:48.748Z,96.50
2023-03-01T03:30:34.166Z,96.50
2023-03-01T03:33:19.320Z,96.50
2023-03-01T03:36:06.911Z,96.60
2023-03-01T03:38:52.354Z,96.50
2023-03-01T03:41:37.936Z,96.60
2023-03-01T03:44:23.120Z,96.60
2023-03-01T03:47:08.638Z,96.60
2023-03-01T03:49:53.987Z,96.60
2023-03-01T03:52:40.855Z,96.90
2023-03-01T03:55:30.941Z,96.50
2023-03-01T03:58:17.308Z,96.60
2023-03-01T04:01:02.680Z,96.60
2023-03-01T04:03:48.328Z,96.60
2023-03-01T04:06:34.006Z,96.60
2023-03-01T04:09:20.857Z,96.60
2023-03-01T04:12:06.553Z,96.60
2023-03-01T04:14:51.760Z,96.70
2023-03-01T04:17:37.375Z,96.60
2023-03-01T04:20:26.652Z,96.70
2023-03-01T04:23:14.344Z,96.60
2023-03-01T04:26:01.212Z,96.60
2023-03-01T04:28:47.157Z,96.60
2023-03-01T04:31:32.625Z,96.60
2023-03-01T04:34:17.975Z,96.60
2023-03-01T04:37:03.819Z,96.60
2023-03-01T04:39:49.244Z,96.70
2023-03-01T04:42:36.035Z,96.70
2023-03-01T04:45:21.829Z,96.70
2023-03-01T04:48:07.603Z,96.60
2023-03-01T04:50:53.102Z,96.80
2023-03-01T04:53:38.610Z,96.70
2023-03-01T04:56:24.102Z,96.70
2023-03-01T04:59:13.632Z,96.80
2023-03-01T05:02:01.380Z,96.80
2023-03-01T05:04:46.737Z,96.90
2023-03-01T05:07:32.307Z,96.90
2023-03-01T05:10:18.123Z,96.90
2023-03-01T05:13:04.239Z,97.00
2023-03-01T05:15:54.625Z,97.00
2023-03-01T05:18:41.016Z,96.90
2023-03-01T05:21:26.836Z,97.20
2023-03-01T05:24:12.630Z,97.00
2023-03-01T05:26:58.089Z,97.20
2023-03-01T05:29:43.606Z,97.20
2023-03-01T05:32:33.042Z,97.20
2023-03-01T05:35:18.896Z,97.20
2023-03-01T05:38:04.606Z,97.10
2023-03-01T05:40:50.214Z,97.20
2023-03-01T05:43:35.773Z,97.20
2023-03-01T05:46:21.324Z,97.20
2023-03-01T05:49:08.541Z,97.20
2023-03-01T05:51:54.450Z,97.20
2023-03-01T05:54:39.680Z,97.30
2023-03-01T05:57:25.066Z,97.20
2023-03-01T06:00:11.172Z,97.20
2023-03-01T06:03:00.059Z,97.30
2023-03-01T06:05:46.961Z,97.20
2023-03-01T06:08:32.646Z,97.30
2023-03-01T06:11:18.282Z,97.30
2023-03-01T06:14:03.919Z,97.30
2023-03-01T06:16:49.893Z,97.30
2023-03-01T06:19:35.652Z,97.60
2023-03-01T06:22:22.543Z,97.30
2023-03-01T06:25:08.720Z,97.30
2023-03-01T06:27:54.465Z,97.60
2023-03-01T06:30:39.792Z,97.60
2023-03-01T06:33:25.538Z,97.50
2023-03-01T06:36:11.128Z,97.80
2023-03-01T06:38:57.903Z,97.60
2023-03-01T06:41:43.355Z,97.50
2023-03-01T06:44:29.283Z,97.60
2023-03-01T06:47:14.885Z,97.70
2023-03-01T06:50:00.363Z,97.80
2023-03-01T06:55:33.156Z,99.80
2023-03-01T06:58:18.820Z,99.90
2023-03-01T07:01:06.596Z,99.60
2023-03-01T07:03:52.241Z,97.90
2023-03-01T07:06:37.875Z,95.80
2023-03-01T07:09:23.924Z,94.00
2023-03-01T07:12:10.969Z,92.10
2023-03-01T07:14:56.605Z,90.60
2023-03-01T07:17:42.213Z,87.80
2023-03-01T07:20:27.777Z,85.60
2023-03-01T07:23:13.470Z,87.00
2023-03-01T07:25:59.191Z,90.00
2023-03-01T07:28:46.012Z,90.50
2023-03-01T07:31:31.661Z,91.30
2023-03-01T07:34:17.258Z,91.40
2023-03-01T07:37:02.930Z,90.20
2023-03-01T07:39:48.443Z,90.50
2023-03-01T07:42:34.299Z,90.40
2023-03-01T07:45:21.411Z,87.90
2023-03-01T07:48:07.028Z,87.60
2023-03-01T07:50:52.315Z,87.80
2023-03-01T07:53:38.141Z,88.40
2023-03-01T07:56:23.898Z,88.50
2023-03-01T07:59:09.515Z,87.10
2023-03-01T08:01:56.790Z,87.00
2023-03-01T08:04:42.479Z,86.90
2023-03-01T08:07:28.132Z,87.20
2023-03-01T08:10:13.663Z,87.20
2023-03-01T08:12:59.107Z,87.30
2023-03-01T08:15:44.999Z,86.40
2023-03-01T08:18:32.406Z,85.10
2023-03-01T08:21:18.899Z,83.40
2023-03-01T08:24:05.093Z,82.40
2023-03-01T08:26:50.353Z,82.50
2023-03-01T08:29:36.679Z,80.80
2023-03-01T08:32:22.490Z,82.00
2023-03-01T08:35:09.782Z,81.60
2023-03-01T08:37:55.687Z,78.90
2023-03-01T08:40:41.500Z,78.30
2023-03-01T08:43:27.031Z,75.40
2023-03-01T08:46:13.329Z,72.10
2023-03-01T08:48:58.931Z,72.90
2023-03-01T08:51:46.312Z,71.70
2023-03-01T08:54:32.082Z,72.30
2023-03-01T08:57:17.742Z,73.20
2023-03-01T09:00:04.567Z,71.50
2023-03-01T09:02:50.380Z,69.90
2023-03-01T09:05:37.787Z,70.90
2023-03-01T09:08:24.851Z,70.90
2023-03-01T09:11:11.691Z,70.80
2023-03-01T09:16:40.979Z,72.20
2023-03-01T09:19:27.558Z,72.40
2023-03-01T09:22:13.002Z,72.90
2023-03-01T09:25:00.089Z,71.00
2023-03-01T09:27:45.373Z,72.50
2023-03-01T09:30:31.390Z,73.00
2023-03-01T09:33:19.986Z,72.00
2023-03-01T09:36:08.201Z,72.60
2023-03-01T09:38:54.327Z,71.70
2023-03-01T09:41:46.450Z,72.70
2023-03-01T09:44:35.532Z,71.40
2023-03-01T09:47:22.650Z,73.00
2023-03-01T09:50:12.995Z,72.20
2023-03-01T09:53:02.108Z,69.80
2023-03-01T09:55:52.092Z,67.40
2023-03-01T09:58:43.124Z,67.10
2023-03-01T10:01:35.758Z,68.60
2023-03-01T10:04:29.401Z,73.20
2023-03-01T10:07:22.744Z,72.20
2023-03-01T10:10:08.933Z,69.10
2023-03-01T10:12:54.830Z,70.20
2023-03-01T10:15:43.112Z,70.60
2023-03-01T10:18:29.933Z,70.20
2023-03-01T10:21:17.905Z,67.40
2023-03-01T10:24:11.498Z,65.80
2023-03-01T10:26:58.223Z,67.30
2023-03-01T10:29:47.324Z,67.10
2023-03-01T10:32:32.933Z,63.70
2023-03-01T10:35:22.401Z,61.10
2023-03-01T10:38:10.115Z,58.40
2023-03-01T10:40:58.922Z,59.50
2023-03-01T10:43:46.144Z,58.30
2023-03-01T10:46:32.918Z,58.20
2023-03-01T10:49:22.089Z,57.00
2023-03-01T10:52:18.793Z,55.20
2023-03-01T10:55:05.953Z,56.70
2023-03-01T10:58:07.090Z,57.90
2023-03-01T11:00:56.490Z,56.40
2023-03-01T11:03:42.231Z,55.50
2023-03-01T11:06:29.251Z,55.20
2023-03-01T11:09:16.701Z,54.40
2023-03-01T11:12:11.415Z,53.50
2023-03-01T11:14:58.397Z,54.80
2023-03-01T11:17:54.568Z,53.60
2023-03-01T11:20:43.063Z,55.20
2023-03-01T11:23:31.736Z,55.10
2023-03-01T11:26:19.474Z,55.10
2023-03-01T11:29:21.026Z,53.90
2023-03-01T11:32:11.277Z,54.70
2023-03-01T11:34:58.968Z,54.20
2023-03-01T11:37:48.170Z,54.70
2023-03-01T11:40:35.447Z,54.00
2023-03-01T11:43:25.538Z,55.30
2023-03-01T11:46:29.474Z,54.20
2023-03-01T11:49:45.076Z,54.10
2023-03-01T11:52:50.847Z,55.00
2023-03-01T11:56:03.021Z,53.20
2023-03-01T11:59:03.659Z,52.30
2023-03-01T12:01:55.675Z,52.70
2023-03-01T12:05:06.391Z,51.90
2023-03-01T12:07:55.121Z,54.10
2023-03-01T12:10:44.320Z,54.30
2023-03-01T12:13:54.759Z,52.90
2023-03-01T12:16:46.382Z,54.10
2023-03-01T12:19:38.046Z,56.10
2023-03-01T12:22:32.167Z,56.70
2023-03-01T12:25:23.009Z,56.20
2023-03-01T12:28:43.104Z,56.70
2023-03-01T12:31:44.880Z,56.80
2023-03-01T12:34:39.233Z,54.50
2023-03-01T12:37:34.560Z,55.70
2023-03-01T12:40:29.159Z,56.00
2023-03-01T12:43:21.705Z,55.60
2023-03-01T12:46:22.239Z,57.60
2023-03-01T12:49:09.443Z,55.90
2023-03-01T12:51:57.647Z,56.90
2023-03-01T12:54:46.141Z,57.60
2023-03-01T12:57:38.372Z,56.20
2023-03-01T13:00:28.838Z,57.20
2023-03-01T13:03:19.515Z,58.90
2023-03-01T13:06:32.285Z,58.30
2023-03-01T13:09:40.218Z,58.30
2023-03-01T13:12:53.222Z,57.50
2023-03-01T13:15:40.482Z,57.80
2023-03-01T13:18:30.560Z,57.30
2023-03-01T13:21:36.040Z,57.20
2023-03-01T13:24:26.213Z,55.90
2023-03-01T13:27:21.256Z,57.90
2023-03-01T13:30:31.580Z,61.60
2023-03-01T13:33:37.430Z,60.60
2023-03-01T13:36:41.768Z,62.40
2023-03-01T13:39:29.302Z,64.20
2023-03-01T13:42:33.098Z,65.60
2023-03-01T13:45:26.724Z,65.50
2023-03-01T13:48:16.808Z,64.10
2023-03-01T13:51:04.301Z,64.20
2023-03-01T13:53:49.646Z,62.40
2023-03-01T13:56:37.676Z,65.40
2023-03-01T13:59:23.605Z,65.60
2023-03-01T14:02:13.367Z,63.80
2023-03-01T14:04:59.332Z,63.10
2023-03-01T14:07:51.906Z,64.60
2023-03-01T14:10:43.785Z,63.40
2023-03-01T14:13:33.833Z,62.70
2023-03-01T14:16:25.298Z,63.60
2023-03-01T14:19:27.686Z,64.70
2023-03-01T14:22:20.940Z,65.60
2023-03-01T14:25:07.551Z,63.00
2023-03-01T14:27:55.942Z,64.10
2023-03-01T14:30:42.498Z,63.20
2023-03-01T14:33:29.760Z,62.90
2023-03-01T14:36:28.210Z,63.50
2023-03-01T14:39:17.764Z,63.70
2023-03-01T14:42:15.411Z,64.80
2023-03-01T14:45:02.212Z,64.80
2023-03-01T14:47:49.935Z,65.40
2023-03-01T14:50:37.527Z,64.40
2023-03-01T14:53:25.826Z,65.00
2023-03-01T14:56:14.121Z,66.40
2023-03-01T14:59:00.311Z,65.70
2023-03-01T15:01:47.028Z,66.20
2023-03-01T15:04:34.719Z,65.20
2023-03-01T15:07:20.789Z,65.10
2023-03-01T15:10:15.847Z,63.70
2023-03-01T15:13:10.975Z,64.50
2023-03-01T15:16:02.355Z,66.10
2023-03-01T15:18:49.044Z,65.20
2023-03-01T15:21:35.648Z,66.00
2023-03-01T15:24:23.711Z,64.30
2023-03-01T15:27:16.481Z,63.00
2023-03-01T15:30:03.188Z,65.70
2023-03-01T15:32:48.942Z,66.80
2023-03-01T15:35:40.903Z,65.00
2023-03-01T15:38:27.911Z,63.30
2023-03-01T15:41:23.825Z,62.80
2023-03-01T15:44:17.701Z,63.60
2023-03-01T15:47:06.851Z,64.10
2023-03-01T15:49:55.409Z,63.30
2023-03-01T15:52:42.199Z,65.00
2023-03-01T15:55:31.560Z,66.40
2023-03-01T15:58:18.226Z,66.30
2023-03-01T16:01:10.799Z,65.20
2023-03-01T16:03:57.455Z,64.70
2023-03-01T16:06:43.211Z,66.60
2023-03-01T16:09:29.142Z,67.90
2023-03-01T16:12:15.582Z,66.60
2023-03-01T16:15:01.172Z,68.20
2023-03-01T16:17:48.075Z,67.50
2023-03-01T16:20:41.086Z,68.40
2023-03-01T16:23:27.057Z,67.00
2023-03-01T16:26:13.893Z,67.20
2023-03-01T16:28:59.826Z,68.00
2023-03-01T16:31:45.725Z,68.00
2023-03-01T16:34:33.101Z,66.60
2023-03-01T16:37:20.228Z,67.30
2023-03-01T16:40:08.535Z,68.10
2023-03-01T16:42:56.169Z,69.60
2023-03-01T16:45:45.461Z,68.90
2023-03-01T16:48:31.338Z,68.90
2023-03-01T16:51:18.964Z,69.40
2023-03-01T16:54:05.665Z,69.90
2023-03-01T16:56:51.312Z,70.10
2023-03-01T16:59:38.302Z,71.40
2023-03-01T17:02:23.985Z,71.60
2023-03-01T17:05:11.000Z,72.30
2023-03-01T17:08:00.826Z,72.90
2023-03-01T17:10:46.752Z,73.30
2023-03-01T17:13:33.033Z,74.50
2023-03-01T17:16:20.271Z,75.00
2023-03-01T17:19:06.338Z,76.30
2023-03-01T17:21:52.111Z,74.90
2023-03-01T17:24:39.940Z,75.50
2023-03-01T17:27:25.739Z,75.30
2023-03-01T17:30:12.673Z,73.90
2023-03-01T17:32:58.779Z,73.00
2023-03-01T17:35:47.145Z,73.20
2023-03-01T17:38:32.853Z,73.40
2023-03-01T17:41:20.610Z,73.60
2023-03-01T17:44:06.488Z,74.60
2023-03-01T17:46:52.056Z,75.10
2023-03-01T17:49:37.785Z,75.40
2023-03-01T17:52:23.798Z,75.80
2023-03-01T17:55:10.409Z,75.50
2023-03-01T17:57:57.317Z,76.30
2023-03-01T18:00:42.930Z,77.80
2023-03-01T18:03:28.652Z,77.80
2023-03-01T18:06:14.811Z,77.10
2023-03-01T18:09:00.225Z,77.60
2023-03-01T18:11:47.850Z,77.50
2023-03-01T18:14:35.055Z,77.40
2023-03-01T18:17:22.895Z,77.60
2023-03-01T18:20:10.108Z,77.50
2023-03-01T18:22:55.690Z,77.50
2023-03-01T18:25:41.516Z,77.60
2023-03-01T18:28:27.102Z,77.70
2023-03-01T18:31:18.582Z,77.00
2023-03-01T18:34:04.366Z,78.10
2023-03-01T18:37:08.023Z,77.20
2023-03-01T18:39:54.811Z,76.90
2023-03-01T18:42:40.604Z,76.90
2023-03-01T18:45:26.450Z,77.50
2023-03-01T18:48:14.533Z,77.50
2023-03-01T18:51:08.686Z,78.20
2023-03-01T18:53:54.882Z,78.40
2023-03-01T18:56:40.549Z,78.20
2023-03-01T18:59:26.712Z,78.00
2023-03-01T19:02:15.506Z,77.90
2023-03-01T19:05:03.008Z,78.80
2023-03-01T19:07:49.443Z,79.00
2023-03-01T19:10:35.257Z,79.90
2023-03-01T19:13:21.167Z,80.40
2023-03-01T19:16:09.084Z,80.70
2023-03-01T19:18:57.234Z,81.50
2023-03-01T19:21:47.020Z,81.90
2023-03-01T19:24:36.702Z,81.70
2023-03-01T19:27:22.155Z,82.10
2023-03-01T19:30:09.236Z,81.90
2023-03-01T19:32:54.999Z,81.80
2023-03-01T19:35:40.533Z,83.70
2023-03-01T19:38:28.519Z,83.80
2023-03-01T19:41:16.754Z,85.20
2023-03-01T19:44:04.580Z,84.80
2023-03-01T19:46:52.091Z,84.50
2023-03-01T19:49:38.223Z,84.50
2023-03-01T19:52:24.367Z,84.70
2023-03-01T19:55:12.258Z,83.80
2023-03-01T19:57:58.474Z,83.50
2023-03-01T20:00:45.499Z,83.50
2023-03-01T20:03:34.250Z,83.80
2023-03-01T20:06:21.718Z,83.30
2023-03-01T20:09:21.015Z,83.30
2023-03-01T20:12:09.054Z,84.30
2023-03-01T20:14:56.957Z,84.00
2023-03-01T20:17:42.769Z,84.40
2023-03-01T20:20:28.835Z,84.70
2023-03-01T20:23:14.933Z,84.70
2023-03-01T20:26:06.249Z,84.50
2023-03-01T20:28:56.902Z,83.80
2023-03-01T20:31:42.822Z,83.60
2023-03-01T20:34:28.650Z,84.40
2023-03-01T20:37:14.710Z,84.30
2023-03-01T20:40:00.808Z,84.50
2023-03-01T20:42:46.515Z,86.00
2023-03-01T20:45:34.188Z,86.50
2023-03-01T20:48:20.073Z,87.50
2023-03-01T20:51:06.002Z,87.40
2023-03-01T20:53:51.515Z,87.30
2023-03-01T20:56:37.845Z,87.00
2023-03-01T20:59:23.936Z,86.60
2023-03-01T21:02:12.006Z,85.90
2023-03-01T21:04:57.367Z,86.30
2023-03-01T21:07:43.052Z,87.10
2023-03-01T21:10:28.934Z,87.90
2023-03-01T21:13:14.867Z,87.50
2023-03-01T21:16:03.447Z,87.90
2023-03-01T21:18:50.217Z,87.70
2023-03-01T21:21:35.940Z,87.90
2023-03-01T21:24:21.397Z,89.80
2023-03-01T21:27:06.906Z,90.10
2023-03-01T21:29:52.650Z,89.70
2023-03-01T21:32:38.399Z,89.90
2023-03-01T21:35:25.348Z,90.10
2023-03-01T21:38:10.943Z,90.30
2023-03-01T21:40:56.577Z,90.50
2023-03-01T21:43:44.319Z,90.60
2023-03-01T21:46:31.430Z,90.60
2023-03-01T21:49:17.533Z,90.60
2023-03-01T21:52:05.317Z,90.50
2023-03-01T21:54:51.329Z,90.50
2023-03-01T21:57:43.704Z,90.30
2023-03-01T22:00:29.508Z,90.00
2023-03-01T22:03:15.606Z,88.90
2023-03-01T22:06:02.501Z,89.50
2023-03-01T22:08:52.156Z,89.80
2023-03-01T22:11:40.374Z,90.10
2023-03-01T22:14:26.618Z,90.30
2023-03-01T22:17:12.263Z,90.20
2023-03-01T22:19:58.654Z,90.30
2023-03-01T22:22:47.764Z,90.50
2023-03-01T22:25:44.577Z,90.60
2023-03-01T22:28:30.647Z,91.00
2023-03-01T22:31:16.694Z,90.70
2023-03-01T22:34:02.319Z,90.70
2023-03-01T22:36:48.522Z,90.50
2023-03-01T22:39:34.296Z,90.50
2023-03-01T22:42:21.796Z,90.30
2023-03-01T22:45:08.163Z,90.40
2023-03-01T22:47:53.790Z,90.20
2023-03-01T22:50:42.483Z,90.30
2023-03-01T22:53:28.469Z,90.50
2023-03-01T22:56:16.124Z,90.30
2023-03-01T22:59:03.966Z,90.70
2023-03-01T23:01:50.480Z,91.10
2023-03-01T23:04:35.941Z,90.70
2023-03-01T23:07:22.203Z,90.80
2023-03-01T23:10:08.475Z,91.00
2023-03-01T23:12:54.691Z,90.80
2023-03-01T23:15:44.793Z,91.10
2023-03-01T23:18:30.549Z,91.80
2023-03-01T23:21:19.128Z,93.00
2023-03-01T23:24:05.681Z,93.70
2023-03-01T23:26:53.379Z,93.90
2023-03-01T23:29:38.861Z,94.30
2023-03-01T23:32:26.102Z,94.50
2023-03-01T23:35:11.964Z,95.00
2023-03-01T23:37:57.948Z,95.80
2023-03-01T23:40:44.094Z,96.50
2023-03-01T23:43:30.588Z,97.10
2023-03-01T23:46:17.199Z,98.50
2023-03-01T23:49:04.680Z,99.10
2023-03-01T23:51:51.113Z,99.80
2023-03-01T23:54:36.775Z,99.90
2023-03-01T23:57:22.562Z,99.90
